createdAt,value
2023-07-18T00:00:20.160Z,42.85
2023-07-18T00:02:48.133Z,41.73
2023-07-18T00:05:15.772Z,40.96
2023-07-18T00:07:44.373Z,40.86
2023-07-18T00:10:12.868Z,41.32
2023-07-18T00:12:41.696Z,42.33
2023-07-18T00:15:10.862Z,42.69
2023-07-18T00:17:39.291Z,43.20
2023-07-18T00:20:13.689Z,44.15
2023-07-18T00:22:42.337Z,44.15
2023-07-18T00:25:12.358Z,44.08
2023-07-18T00:27:41.467Z,43.78
2023-07-18T00:30:13.698Z,43.17
2023-07-18T00:32:46.035Z,43.78
2023-07-18T00:35:18.043Z,44.44
2023-07-18T00:37:45.918Z,44.91
2023-07-18T00:40:16.091Z,44.55
2023-07-18T00:42:48.812Z,44.76
2023-07-18T00:45:17.143Z,45.28
2023-07-18T00:47:47.153Z,44.64
2023-07-18T00:50:19.829Z,44.02
2023-07-18T00:52:56.255Z,44.53
2023-07-18T00:55:24.528Z,44.09
2023-07-18T00:57:54.295Z,45.39
2023-07-18T01:00:24.032Z,45.38
2023-07-18T01:02:52.626Z,44.48
2023-07-18T01:05:21.259Z,45.89
2023-07-18T01:07:49.219Z,47.04
2023-07-18T01:10:26.435Z,46.09
2023-07-18T01:13:01.986Z,46.45
2023-07-18T01:15:34.688Z,46.50
2023-07-18T01:18:09.999Z,46.21
2023-07-18T01:20:39.462Z,46.24
2023-07-18T01:23:06.875Z,46.30
2023-07-18T01:25:36.255Z,46.22
2023-07-18T01:28:04.895Z,45.59
2023-07-18T01:30:32.203Z,46.91
2023-07-18T01:32:59.527Z,46.70
2023-07-18T01:35:29.252Z,46.51
2023-07-18T01:37:59.711Z,46.89
2023-07-18T01:40:28.169Z,46.81
2023-07-18T01:42:58.416Z,46.88
2023-07-18T01:45:29.317Z,47.39
2023-07-18T01:47:58.215Z,47.70
2023-07-18T01:50:25.680Z,47.01
2023-07-18T01:52:53.829Z,46.73
2023-07-18T01:55:23.710Z,47.48
2023-07-18T01:57:51.750Z,47.36
2023-07-18T02:00:21.948Z,48.44
2023-07-18T02:02:55.341Z,49.57
2023-07-18T02:05:26.801Z,49.22
2023-07-18T02:07:55.266Z,49.25
2023-07-18T02:10:26.954Z,47.53
2023-07-18T02:13:02.828Z,47.31
2023-07-18T02:15:31.719Z,47.27
2023-07-18T02:17:59.277Z,48.17
2023-07-18T02:20:26.775Z,48.39
2023-07-18T02:22:54.127Z,48.85
2023-07-18T02:25:22.509Z,48.70
2023-07-18T02:27:51.377Z,48.50
2023-07-18T02:30:18.607Z,48.91
2023-07-18T02:32:46.154Z,49.00
2023-07-18T02:35:19.949Z,48.36
2023-07-18T02:37:48.116Z,47.74
2023-07-18T02:40:19.150Z,48.48
2023-07-18T02:42:47.333Z,49.44
2023-07-18T02:45:15.353Z,50.25
2023-07-18T02:47:42.945Z,49.91
2023-07-18T02:50:11.222Z,50.70
2023-07-18T02:52:40.253Z,50.47
2023-07-18T02:55:09.278Z,50.43
2023-07-18T02:57:37.242Z,49.77
2023-07-18T03:00:12.120Z,49.41
2023-07-18T03:02:39.812Z,50.05
2023-07-18T03:05:08.671Z,50.70
2023-07-18T03:07:35.868Z,51.14
2023-07-18T03:10:04.767Z,52.25
2023-07-18T03:12:32.110Z,52.08
2023-07-18T03:14:59.814Z,52.07
2023-07-18T03:17:27.274Z,51.79
2023-07-18T03:19:55.464Z,51.97
2023-07-18T03:22:22.964Z,52.34
2023-07-18T03:24:50.924Z,52.04
2023-07-18T03:27:19.276Z,50.25
2023-07-18T03:29:46.614Z,50.92
2023-07-18T03:32:14.397Z,50.78
2023-07-18T03:34:42.800Z,51.02
2023-07-18T03:37:11.031Z,50.60
2023-07-18T03:39:38.548Z,49.91
2023-07-18T03:42:06.550Z,49.38
2023-07-18T03:44:34.197Z,50.28
2023-07-18T03:47:11.148Z,50.97
2023-07-18T03:49:47.909Z,49.80
2023-07-18T03:52:15.291Z,51.21
2023-07-18T03:54:44.271Z,51.66
2023-07-18T03:57:13.424Z,51.25
2023-07-18T03:59:41.607Z,51.52
2023-07-18T04:02:09.202Z,52.96
2023-07-18T04:04:36.560Z,51.16
2023-07-18T04:07:04.246Z,51.05
2023-07-18T04:09:32.144Z,52.31
2023-07-18T04:11:59.366Z,52.17
2023-07-18T04:14:26.724Z,51.42
2023-07-18T04:16:54.043Z,50.78
2023-07-18T04:19:24.748Z,50.32
2023-07-18T04:21:51.947Z,51.42
2023-07-18T04:24:19.369Z,51.93
2023-07-18T04:26:48.502Z,52.13
2023-07-18T04:29:15.789Z,51.10
2023-07-18T04:31:43.179Z,51.10
2023-07-18T04:34:10.396Z,51.65
2023-07-18T04:36:38.127Z,50.96
2023-07-18T04:39:07.030Z,50.89
2023-07-18T04:41:45.145Z,49.12
2023-07-18T04:44:17.433Z,45.40
2023-07-18T04:46:45.056Z,41.83
2023-07-18T04:49:12.440Z,40.00
2023-07-18T04:51:39.606Z,38.46
2023-07-18T04:54:08.146Z,36.74
2023-07-18T04:56:35.876Z,35.32
2023-07-18T04:59:03.673Z,33.28
2023-07-18T05:01:31.313Z,31.59
2023-07-18T05:03:59.812Z,30.58
2023-07-18T05:06:27.054Z,29.72
2023-07-18T05:08:54.931Z,28.73
2023-07-18T05:11:22.434Z,28.26
2023-07-18T05:13:50.166Z,28.60
2023-07-18T05:16:17.789Z,28.72
2023-07-18T05:18:45.186Z,27.65
2023-07-18T05:21:12.958Z,27.00
2023-07-18T05:23:40.119Z,26.16
2023-07-18T05:26:09.364Z,26.17
2023-07-18T05:28:36.512Z,26.05
2023-07-18T05:31:10.732Z,26.17
2023-07-18T05:33:38.262Z,25.52
2023-07-18T05:36:06.389Z,26.65
2023-07-18T05:38:33.734Z,27.26
2023-07-18T05:41:00.881Z,26.44
2023-07-18T05:43:28.081Z,24.46
2023-07-18T05:45:55.986Z,22.96
2023-07-18T05:48:23.697Z,22.13
2023-07-18T05:50:50.995Z,21.51
2023-07-18T05:53:18.570Z,20.67
2023-07-18T05:55:46.159Z,19.95
2023-07-18T05:58:14.407Z,19.00
2023-07-18T06:00:43.106Z,18.53
2023-07-18T06:03:10.503Z,19.64
2023-07-18T06:05:37.925Z,19.15
2023-07-18T06:08:06.404Z,18.58
2023-07-18T06:10:34.111Z,18.43
2023-07-18T06:13:01.422Z,17.94
2023-07-18T06:15:28.948Z,19.08
2023-07-18T06:17:56.217Z,19.67
2023-07-18T06:20:23.443Z,19.04
2023-07-18T06:22:50.919Z,18.37
2023-07-18T06:25:18.459Z,18.06
2023-07-18T06:27:45.648Z,17.67
2023-07-18T06:30:13.575Z,16.60
2023-07-18T06:32:41.203Z,16.64
2023-07-18T06:35:23.208Z,16.88
2023-07-18T06:37:53.953Z,16.23
2023-07-18T06:40:21.467Z,15.97
2023-07-18T06:42:48.820Z,14.96
2023-07-18T06:45:16.314Z,15.71
2023-07-18T06:47:45.256Z,15.51
2023-07-18T06:50:13.171Z,14.80
2023-07-18T06:52:40.682Z,15.25
2023-07-18T06:55:11.900Z,15.26
2023-07-18T06:57:43.328Z,14.72
2023-07-18T07:00:13.978Z,13.94
2023-07-18T07:02:41.766Z,13.48
2023-07-18T07:05:10.187Z,13.54
2023-07-18T07:07:37.416Z,12.64
2023-07-18T07:10:09.831Z,12.58
2023-07-18T07:12:37.749Z,12.75
2023-07-18T07:15:06.522Z,13.05
2023-07-18T07:17:34.088Z,11.86
2023-07-18T07:20:01.931Z,11.31
2023-07-18T07:22:29.220Z,11.28
2023-07-18T07:24:56.534Z,11.33
2023-07-18T07:27:24.286Z,10.88
2023-07-18T07:29:53.118Z,11.39
2023-07-18T07:32:20.783Z,11.02
2023-07-18T07:34:48.173Z,10.43
2023-07-18T07:37:15.709Z,10.64
2023-07-18T07:39:43.360Z,10.09
2023-07-18T07:42:10.611Z,10.41
2023-07-18T07:44:38.047Z,9.63
2023-07-18T07:47:06.311Z,10.79
2023-07-18T07:49:33.982Z,9.61
2023-07-18T07:52:01.538Z,9.90
2023-07-18T07:54:28.712Z,9.63
2023-07-18T07:56:56.874Z,9.34
2023-07-18T07:59:25.048Z,9.22
2023-07-18T08:01:53.733Z,8.89
2023-07-18T08:04:21.273Z,8.40
2023-07-18T08:06:48.620Z,8.57
2023-07-18T08:09:16.258Z,8.18
2023-07-18T08:11:43.955Z,7.82
2023-07-18T08:14:11.169Z,7.23
2023-07-18T08:16:38.571Z,7.54
2023-07-18T08:19:06.457Z,7.11
2023-07-18T08:21:33.904Z,7.25
2023-07-18T08:24:02.012Z,6.94
2023-07-18T08:26:29.374Z,6.46
2023-07-18T08:28:56.675Z,6.43
2023-07-18T08:31:24.071Z,6.37
2023-07-18T08:33:51.917Z,5.95
2023-07-18T08:36:19.387Z,7.59
2023-07-18T08:38:51.257Z,7.75
2023-07-18T08:41:23.290Z,7.32
2023-07-18T08:43:51.445Z,7.75
2023-07-18T08:46:20.161Z,7.11
2023-07-18T08:48:51.674Z,6.35
2023-07-18T08:51:19.541Z,5.98
2023-07-18T08:53:47.135Z,6.37
2023-07-18T08:56:15.056Z,6.35
2023-07-18T08:58:42.742Z,6.34
2023-07-18T09:01:10.275Z,6.23
2023-07-18T09:03:37.742Z,6.40
2023-07-18T09:06:21.179Z,7.09
2023-07-18T09:08:50.538Z,6.84
2023-07-18T09:11:22.393Z,6.54
2023-07-18T09:13:50.106Z,7.52
2023-07-18T09:16:21.888Z,7.00
2023-07-18T09:18:56.029Z,5.94
2023-07-18T09:21:24.841Z,5.92
2023-07-18T09:23:53.883Z,5.98
2023-07-18T09:26:22.887Z,6.34
2023-07-18T09:28:52.495Z,6.84
2023-07-18T09:31:23.773Z,6.18
2023-07-18T09:33:55.473Z,6.35
2023-07-18T09:36:26.364Z,5.81
2023-07-18T09:38:53.922Z,6.07
2023-07-18T09:41:24.005Z,5.98
2023-07-18T09:44:02.863Z,5.82
2023-07-18T09:46:42.413Z,5.95
2023-07-18T09:49:14.787Z,6.49
2023-07-18T09:52:05.181Z,6.49
2023-07-18T09:54:34.609Z,6.18
2023-07-18T09:57:13.077Z,6.34
2023-07-18T09:59:41.487Z,7.20
2023-07-18T10:02:11.984Z,7.19
2023-07-18T10:04:39.948Z,7.12
2023-07-18T10:07:12.143Z,8.13
2023-07-18T10:09:40.429Z,8.50
2023-07-18T10:12:09.411Z,8.95
2023-07-18T10:14:51.303Z,10.03
2023-07-18T10:17:41.904Z,11.29
2023-07-18T10:20:23.010Z,12.34
2023-07-18T10:23:00.325Z,13.18
2023-07-18T10:25:31.182Z,13.81
2023-07-18T10:28:01.360Z,14.97
2023-07-18T10:30:43.044Z,15.81
2023-07-18T10:33:11.110Z,16.06
2023-07-18T10:35:43.091Z,16.67
2023-07-18T10:38:15.623Z,17.67
2023-07-18T10:40:45.955Z,19.23
2023-07-18T10:43:18.211Z,20.01
2023-07-18T10:45:46.400Z,21.32
2023-07-18T10:48:17.172Z,21.16
2023-07-18T10:50:47.563Z,19.54
2023-07-18T10:53:21.384Z,17.51
2023-07-18T10:55:49.837Z,16.23
2023-07-18T10:58:20.885Z,15.23
2023-07-18T11:00:51.255Z,14.33
2023-07-18T11:03:37.068Z,14.35
2023-07-18T11:06:08.038Z,13.58
2023-07-18T11:08:35.630Z,13.49
2023-07-18T11:11:05.528Z,13.28
2023-07-18T11:13:39.141Z,14.55
2023-07-18T11:16:16.196Z,15.03
2023-07-18T11:18:49.570Z,15.77
2023-07-18T11:21:20.140Z,16.65
2023-07-18T11:23:49.120Z,17.29
2023-07-18T11:26:19.690Z,18.13
2023-07-18T11:28:53.135Z,19.12
2023-07-18T11:31:41.112Z,19.82
2023-07-18T11:34:10.331Z,19.96
2023-07-18T11:36:41.663Z,20.30
2023-07-18T11:39:21.479Z,20.79
2023-07-18T11:41:50.137Z,21.49
2023-07-18T11:44:27.134Z,22.09
2023-07-18T11:46:56.177Z,23.50
2023-07-18T11:49:36.269Z,24.57
2023-07-18T11:52:07.311Z,27.40
2023-07-18T11:54:38.591Z,27.61
2023-07-18T11:57:07.534Z,32.84
2023-07-18T11:59:35.598Z,30.97
2023-07-18T12:02:04.069Z,27.55
2023-07-18T12:04:32.625Z,26.23
2023-07-18T12:07:00.129Z,26.15
2023-07-18T12:09:27.667Z,25.85
2023-07-18T12:11:55.667Z,24.75
2023-07-18T12:14:23.060Z,24.01
2023-07-18T12:16:50.557Z,24.29
2023-07-18T12:19:20.575Z,25.06
2023-07-18T12:21:50.378Z,24.59
2023-07-18T12:24:19.444Z,23.80
2023-07-18T12:26:46.830Z,22.37
2023-07-18T12:29:16.970Z,21.49
2023-07-18T12:31:50.583Z,20.24
2023-07-18T12:34:19.116Z,20.02
2023-07-18T12:36:47.569Z,20.48
2023-07-18T12:39:17.051Z,19.21
2023-07-18T12:41:44.506Z,18.95
2023-07-18T12:44:25.563Z,19.22
2023-07-18T12:46:56.743Z,18.71
2023-07-18T12:51:55.266Z,17.99
2023-07-18T12:54:22.615Z,17.75
2023-07-18T12:56:50.682Z,17.18
2023-07-18T12:59:19.498Z,16.79
2023-07-18T13:01:47.586Z,17.18
2023-07-18T13:04:15.707Z,17.36
2023-07-18T13:06:42.959Z,17.40
2023-07-18T13:09:10.411Z,17.53
2023-07-18T13:11:37.814Z,17.08
2023-07-18T13:14:05.030Z,17.14
2023-07-18T13:16:32.336Z,17.31
2023-07-18T13:18:59.701Z,17.95
2023-07-18T13:21:26.921Z,19.05
2023-07-18T13:23:54.180Z,18.88
2023-07-18T13:26:23.737Z,18.90
2023-07-18T13:28:50.872Z,19.71
2023-07-18T13:31:18.229Z,19.96
2023-07-18T13:33:46.561Z,19.93
2023-07-18T13:36:14.763Z,19.21
2023-07-18T13:38:42.245Z,18.75
2023-07-18T13:41:10.426Z,17.71
2023-07-18T13:43:40.324Z,16.78
2023-07-18T13:46:08.552Z,16.37
2023-07-18T13:48:36.197Z,16.62
2023-07-18T13:51:04.070Z,17.01
2023-07-18T13:53:31.639Z,17.00
2023-07-18T13:55:59.556Z,18.59
2023-07-18T13:58:27.141Z,18.79
2023-07-18T14:00:56.429Z,18.37
2023-07-18T14:03:34.070Z,18.45
2023-07-18T14:06:03.035Z,18.46
2023-07-18T14:08:31.297Z,18.40
2023-07-18T14:10:59.114Z,18.93
2023-07-18T14:13:27.247Z,19.31
2023-07-18T14:15:55.550Z,19.14
2023-07-18T14:18:23.130Z,19.07
2023-07-18T14:20:50.532Z,18.85
2023-07-18T14:23:18.196Z,19.31
2023-07-18T14:25:49.124Z,19.69
2023-07-18T14:28:17.391Z,20.02
2023-07-18T14:30:45.293Z,20.67
2023-07-18T14:33:14.970Z,20.49
2023-07-18T14:35:43.003Z,20.28
2023-07-18T14:38:12.042Z,20.05
2023-07-18T14:40:40.680Z,19.91
2023-07-18T14:43:10.764Z,19.98
2023-07-18T14:45:38.768Z,20.42
2023-07-18T14:48:08.112Z,20.40
2023-07-18T14:50:35.907Z,20.42
2023-07-18T14:53:03.359Z,20.68
2023-07-18T14:55:34.465Z,20.47
2023-07-18T14:58:03.372Z,20.67
2023-07-18T15:00:30.996Z,20.83
2023-07-18T15:02:58.740Z,20.88
2023-07-18T15:05:27.604Z,21.44
2023-07-18T15:07:55.076Z,20.99
2023-07-18T15:10:22.580Z,20.89
2023-07-18T15:12:49.940Z,20.69
2023-07-18T15:15:19.192Z,20.70
2023-07-18T15:17:47.893Z,20.10
2023-07-18T15:20:16.991Z,19.69
2023-07-18T15:22:44.937Z,19.69
2023-07-18T15:25:12.405Z,20.11
2023-07-18T15:27:41.758Z,19.99
2023-07-18T15:30:11.468Z,20.21
2023-07-18T15:32:45.229Z,20.36
2023-07-18T15:35:14.482Z,20.40
2023-07-18T15:37:44.390Z,20.68
2023-07-18T15:40:12.817Z,20.25
2023-07-18T15:42:41.907Z,20.42
2023-07-18T15:45:10.176Z,20.59
2023-07-18T15:47:37.530Z,21.16
2023-07-18T15:50:07.556Z,21.52
2023-07-18T15:52:35.175Z,22.62
2023-07-18T15:55:02.346Z,22.99
2023-07-18T15:57:35.096Z,22.60
2023-07-18T16:00:03.753Z,22.61
2023-07-18T16:02:35.511Z,22.87
2023-07-18T16:05:08.790Z,22.95
2023-07-18T16:07:36.644Z,22.81
2023-07-18T16:10:04.473Z,22.90
2023-07-18T16:12:31.762Z,22.43
2023-07-18T16:15:00.053Z,22.93
2023-07-18T16:17:28.895Z,22.65
2023-07-18T16:19:57.379Z,22.81
2023-07-18T16:22:24.889Z,22.58
2023-07-18T16:24:52.781Z,22.78
2023-07-18T16:27:20.551Z,22.33
2023-07-18T16:29:47.930Z,22.71
2023-07-18T16:32:15.973Z,23.34
2023-07-18T16:34:43.567Z,23.36
2023-07-18T16:37:11.756Z,22.98
2023-07-18T16:39:39.894Z,23.46
2023-07-18T16:42:22.798Z,23.58
2023-07-18T16:44:52.041Z,23.86
2023-07-18T16:47:20.336Z,23.74
2023-07-18T16:49:47.988Z,24.10
2023-07-18T16:52:16.909Z,24.39
2023-07-18T16:54:45.078Z,24.58
2023-07-18T16:57:14.886Z,24.69
2023-07-18T16:59:42.644Z,24.59
2023-07-18T17:02:10.489Z,24.66
2023-07-18T17:04:37.906Z,24.38
2023-07-18T17:07:05.840Z,24.58
2023-07-18T17:09:33.155Z,24.32
2023-07-18T17:12:00.545Z,24.43
2023-07-18T17:14:27.925Z,24.29
2023-07-18T17:16:55.461Z,24.09
2023-07-18T17:19:22.948Z,24.61
2023-07-18T17:21:50.363Z,24.35
2023-07-18T17:24:18.023Z,24.74
2023-07-18T17:26:45.387Z,25.15
2023-07-18T17:29:12.760Z,25.01
2023-07-18T17:31:39.915Z,25.31
2023-07-18T17:34:07.658Z,25.59
2023-07-18T17:36:35.837Z,25.63
2023-07-18T17:39:04.034Z,25.97
2023-07-18T17:41:31.565Z,26.24
2023-07-18T17:43:58.815Z,26.92
2023-07-18T17:46:26.087Z,27.56
2023-07-18T17:48:53.432Z,28.78
2023-07-18T17:51:21.182Z,30.38
2023-07-18T17:53:48.768Z,33.48
2023-07-18T17:56:16.558Z,36.04
2023-07-18T17:58:44.545Z,38.08
2023-07-18T18:01:12.641Z,36.38
2023-07-18T18:03:40.520Z,39.08
2023-07-18T18:06:10.904Z,36.99
2023-07-18T18:08:38.370Z,39.21
2023-07-18T18:11:06.127Z,37.94
2023-07-18T18:13:33.561Z,37.96
2023-07-18T18:16:07.943Z,38.80
2023-07-18T18:18:37.160Z,38.28
2023-07-18T18:21:05.041Z,37.72
2023-07-18T18:26:04.969Z,37.92
2023-07-18T18:28:33.296Z,39.66
2023-07-18T18:31:01.038Z,39.96
2023-07-18T18:33:29.071Z,40.18
2023-07-18T18:35:57.556Z,41.36
2023-07-18T18:38:25.601Z,41.36
2023-07-18T18:40:53.905Z,41.46
2023-07-18T18:43:21.151Z,41.20
2023-07-18T18:45:48.441Z,41.60
2023-07-18T18:48:15.735Z,41.43
2023-07-18T18:50:43.115Z,40.67
2023-07-18T18:53:10.345Z,40.87
2023-07-18T18:55:38.235Z,40.24
2023-07-18T18:58:07.904Z,40.96
2023-07-18T19:00:35.948Z,41.83
2023-07-18T19:03:04.290Z,46.30
2023-07-18T19:05:31.734Z,49.34
2023-07-18T19:07:58.913Z,53.63
2023-07-18T19:10:27.986Z,57.02
2023-07-18T19:12:55.349Z,60.62
2023-07-18T19:15:23.259Z,61.55
2023-07-18T19:17:50.656Z,60.15
2023-07-18T19:20:17.947Z,60.26
2023-07-18T19:22:46.299Z,60.45
2023-07-18T19:25:14.393Z,60.07
2023-07-18T19:27:41.826Z,57.94
2023-07-18T19:30:11.954Z,58.62
2023-07-18T19:32:44.475Z,63.17
2023-07-18T19:35:12.113Z,62.45
2023-07-18T19:37:40.054Z,63.15
2023-07-18T19:40:10.499Z,64.68
2023-07-18T19:42:37.786Z,62.58
2023-07-18T19:45:05.881Z,61.11
2023-07-18T19:47:33.109Z,63.24
2023-07-18T19:50:01.017Z,65.46
2023-07-18T19:52:28.891Z,65.20
2023-07-18T19:54:56.098Z,63.46
2023-07-18T19:57:23.565Z,65.07
2023-07-18T19:59:51.559Z,65.88
2023-07-18T20:02:19.240Z,66.11
2023-07-18T20:04:46.637Z,66.68
2023-07-18T20:07:14.422Z,67.24
2023-07-18T20:09:42.131Z,65.81
2023-07-18T20:12:09.834Z,62.07
2023-07-18T20:14:37.585Z,63.48
2023-07-18T20:17:05.705Z,63.28
2023-07-18T20:19:33.037Z,65.16
2023-07-18T20:22:00.788Z,66.95
2023-07-18T20:24:28.179Z,66.71
2023-07-18T20:26:55.599Z,66.54
2023-07-18T20:29:22.874Z,66.46
2023-07-18T20:31:50.068Z,66.54
2023-07-18T20:34:17.582Z,65.54
2023-07-18T20:36:45.411Z,66.55
2023-07-18T20:39:12.982Z,63.93
2023-07-18T20:41:41.097Z,62.10
2023-07-18T20:44:09.192Z,64.74
2023-07-18T20:46:37.207Z,67.04
2023-07-18T20:49:04.677Z,65.34
2023-07-18T20:51:32.203Z,65.46
2023-07-18T20:53:59.521Z,64.63
2023-07-18T20:56:27.455Z,65.25
2023-07-18T20:58:55.647Z,65.04
2023-07-18T21:01:23.745Z,65.11
2023-07-18T21:03:52.005Z,65.64
2023-07-18T21:06:19.402Z,65.56
2023-07-18T21:08:47.164Z,65.05
2023-07-18T21:11:16.080Z,65.95
2023-07-18T21:13:44.315Z,65.44
2023-07-18T21:16:12.553Z,63.85
2023-07-18T21:18:39.943Z,61.83
2023-07-18T21:21:07.489Z,62.93
2023-07-18T21:23:34.976Z,65.31
2023-07-18T21:26:02.377Z,64.49
2023-07-18T21:28:31.790Z,66.10
2023-07-18T21:30:59.219Z,66.53
2023-07-18T21:33:27.001Z,66.31
2023-07-18T21:35:54.555Z,63.30
2023-07-18T21:38:22.145Z,63.20
2023-07-18T21:40:49.509Z,64.94
2023-07-18T21:43:16.804Z,66.05
2023-07-18T21:45:44.099Z,65.70
2023-07-18T21:48:11.463Z,64.03
2023-07-18T21:50:40.217Z,64.18
2023-07-18T21:53:08.688Z,62.42
2023-07-18T21:55:40.604Z,62.39
2023-07-18T21:58:08.515Z,62.40
2023-07-18T22:00:37.808Z,60.21
2023-07-18T22:03:06.104Z,60.31
2023-07-18T22:05:33.363Z,60.38
2023-07-18T22:08:00.625Z,61.07
2023-07-18T22:10:28.183Z,61.57
2023-07-18T22:12:55.451Z,61.87
2023-07-18T22:15:22.745Z,62.56
2023-07-18T22:17:50.317Z,64.22
2023-07-18T22:20:17.618Z,63.77
2023-07-18T22:22:45.217Z,63.33
2023-07-18T22:25:13.258Z,61.78
2023-07-18T22:27:41.000Z,61.22
2023-07-18T22:30:09.625Z,60.71
2023-07-18T22:32:37.184Z,61.12
2023-07-18T22:35:05.068Z,60.00
2023-07-18T22:37:35.433Z,60.50
2023-07-18T22:40:03.984Z,60.99
2023-07-18T22:42:31.697Z,60.51
2023-07-18T22:44:58.875Z,60.29
2023-07-18T22:47:26.110Z,59.07
2023-07-18T22:49:53.805Z,59.12
2023-07-18T22:52:21.296Z,60.02
2023-07-18T22:54:50.878Z,60.33
2023-07-18T22:57:19.428Z,58.96
2023-07-18T22:59:50.302Z,58.84
2023-07-18T23:02:18.092Z,59.31
2023-07-18T23:04:46.421Z,59.36
2023-07-18T23:07:14.903Z,59.65
2023-07-18T23:09:42.281Z,60.02
2023-07-18T23:12:12.344Z,60.00
2023-07-18T23:14:40.064Z,60.84
2023-07-18T23:17:07.545Z,61.00
2023-07-18T23:19:35.176Z,61.11
2023-07-18T23:22:02.578Z,60.20
2023-07-18T23:24:30.465Z,60.11
2023-07-18T23:26:57.688Z,60.42
2023-07-18T23:29:25.361Z,60.38
2023-07-18T23:31:52.688Z,60.51
2023-07-18T23:34:20.334Z,60.69
2023-07-18T23:36:48.889Z,60.69
2023-07-18T23:39:17.530Z,60.01
2023-07-18T23:41:44.798Z,59.72
2023-07-18T23:44:12.247Z,60.01
2023-07-18T23:46:39.758Z,60.61
2023-07-18T23:49:07.426Z,60.76
2023-07-18T23:51:35.028Z,59.19
2023-07-18T23:54:02.182Z,60.38
2023-07-18T23:56:30.102Z,59.59
2023-07-18T23:58:58.769Z,60.03
